createdAt,value
2022-10-28T00:01:50.151Z,91.05
2022-10-28T00:04:17.062Z,90.85
2022-10-28T00:06:46.094Z,90.84
2022-10-28T00:09:13.510Z,90.71
2022-10-28T00:11:40.146Z,90.71
2022-10-28T00:14:08.166Z,90.80
2022-10-28T00:16:37.152Z,90.96
2022-10-28T00:19:07.950Z,90.71
2022-10-28T00:21:36.962Z,91.06
2022-10-28T00:24:04.365Z,90.92
2022-10-28T00:26:33.545Z,91.00
2022-10-28T00:29:03.813Z,90.82
2022-10-28T00:31:31.667Z,90.89
2022-10-28T00:33:59.830Z,90.89
2022-10-28T00:36:32.117Z,90.81
2022-10-28T00:38:59.793Z,91.14
2022-10-28T00:41:27.662Z,91.23
2022-10-28T00:43:57.111Z,90.75
2022-10-28T00:46:34.170Z,90.87
2022-10-28T00:49:12.942Z,90.94
2022-10-28T00:51:39.871Z,91.19
2022-10-28T00:54:07.595Z,90.87
2022-10-28T00:56:39.334Z,91.05
2022-10-28T00:59:11.645Z,91.27
2022-10-28T01:01:38.495Z,91.31
2022-10-28T01:04:05.354Z,90.92
2022-10-28T01:06:31.989Z,91.20
2022-10-28T01:09:00.135Z,91.07
2022-10-28T01:11:29.980Z,90.89
2022-10-28T01:14:05.411Z,90.97
2022-10-28T01:16:54.080Z,91.06
2022-10-28T01:19:32.703Z,91.07
2022-10-28T01:22:24.098Z,90.81
2022-10-28T01:24:56.804Z,90.89
2022-10-28T01:28:01.215Z,90.86
2022-10-28T01:30:35.860Z,91.08
2022-10-28T01:33:09.766Z,91.15
2022-10-28T01:35:53.697Z,91.19
2022-10-28T01:38:59.928Z,91.01
2022-10-28T01:41:40.766Z,91.18
2022-10-28T01:44:24.264Z,91.10
2022-10-28T01:46:55.844Z,91.37
2022-10-28T01:49:29.296Z,91.30
2022-10-28T01:52:00.310Z,91.43
2022-10-28T01:54:32.165Z,91.56
2022-10-28T01:57:02.159Z,91.43
2022-10-28T01:59:30.788Z,91.07
2022-10-28T02:01:57.766Z,91.51
2022-10-28T02:04:24.176Z,91.38
2022-10-28T02:06:54.608Z,91.83
2022-10-28T02:09:39.064Z,91.74
2022-10-28T02:12:29.861Z,91.63
2022-10-28T02:15:23.889Z,91.18
2022-10-28T02:18:16.127Z,91.32
2022-10-28T02:21:05.816Z,91.55
2022-10-28T02:23:41.457Z,91.74
2022-10-28T02:26:12.744Z,91.61
2022-10-28T02:28:42.038Z,91.84
2022-10-28T02:31:22.451Z,91.74
2022-10-28T02:33:54.249Z,92.15
2022-10-28T02:36:23.171Z,91.81
2022-10-28T02:38:52.427Z,91.78
2022-10-28T02:41:37.484Z,91.40
2022-10-28T02:44:09.815Z,92.31
2022-10-28T02:46:38.965Z,92.24
2022-10-28T02:49:10.427Z,91.78
2022-10-28T02:51:40.779Z,92.27
2022-10-28T02:54:15.142Z,91.86
2022-10-28T02:57:01.798Z,91.55
2022-10-28T02:59:29.088Z,92.34
2022-10-28T03:01:56.002Z,92.35
2022-10-28T03:04:22.799Z,92.15
2022-10-28T03:06:49.215Z,92.11
2022-10-28T03:09:15.541Z,92.14
2022-10-28T03:11:41.863Z,92.43
2022-10-28T03:14:10.718Z,92.52
2022-10-28T03:16:39.636Z,91.77
2022-10-28T03:19:06.035Z,92.21
2022-10-28T03:21:32.414Z,92.26
2022-10-28T03:23:58.861Z,92.23
2022-10-28T03:26:25.167Z,91.98
2022-10-28T03:28:51.558Z,92.03
2022-10-28T03:31:17.905Z,92.67
2022-10-28T03:33:44.230Z,92.32
2022-10-28T03:36:10.646Z,92.51
2022-10-28T03:38:37.042Z,92.20
2022-10-28T03:41:03.438Z,92.00
2022-10-28T03:43:29.956Z,92.28
2022-10-28T03:45:56.282Z,92.52
2022-10-28T03:48:22.604Z,92.69
2022-10-28T03:50:53.629Z,92.20
2022-10-28T03:53:20.795Z,92.34
2022-10-28T03:55:58.497Z,92.55
2022-10-28T03:58:25.221Z,92.15
2022-10-28T04:00:53.436Z,92.02
2022-10-28T04:03:22.058Z,92.03
2022-10-28T04:05:48.807Z,92.17
2022-10-28T04:08:16.586Z,92.37
2022-10-28T04:10:47.288Z,92.13
2022-10-28T04:13:15.292Z,92.63
2022-10-28T04:15:41.878Z,92.45
2022-10-28T04:18:08.563Z,92.42
2022-10-28T04:20:35.316Z,92.33
2022-10-28T04:23:02.085Z,92.36
2022-10-28T04:25:29.048Z,92.20
2022-10-28T04:27:56.258Z,92.06
2022-10-28T04:30:22.972Z,92.09
2022-10-28T04:32:49.319Z,91.90
2022-10-28T04:35:15.812Z,92.13
2022-10-28T04:37:42.136Z,92.12
2022-10-28T04:40:09.161Z,92.20
2022-10-28T04:42:35.764Z,91.98
2022-10-28T04:45:02.081Z,92.30
2022-10-28T04:47:28.727Z,92.21
2022-10-28T04:49:55.077Z,92.05
2022-10-28T04:52:21.515Z,92.04
2022-10-28T04:54:47.916Z,92.07
2022-10-28T04:57:14.319Z,92.23
2022-10-28T04:59:40.817Z,92.33
2022-10-28T05:02:07.304Z,92.22
2022-10-28T05:04:33.751Z,92.39
2022-10-28T05:07:00.326Z,92.48
2022-10-28T05:09:26.808Z,92.53
2022-10-28T05:11:54.213Z,91.81
2022-10-28T05:14:20.776Z,92.67
2022-10-28T05:16:47.076Z,92.40
2022-10-28T05:19:13.517Z,92.18
2022-10-28T05:21:39.870Z,91.90
2022-10-28T05:24:06.810Z,92.56
2022-10-28T05:26:33.178Z,92.68
2022-10-28T05:28:59.559Z,91.97
2022-10-28T05:31:25.908Z,92.05
2022-10-28T05:33:52.230Z,91.97
2022-10-28T05:36:18.564Z,92.54
2022-10-28T05:38:45.484Z,92.53
2022-10-28T05:41:12.230Z,92.40
2022-10-28T05:43:38.770Z,92.01
2022-10-28T05:46:05.167Z,92.29
2022-10-28T05:48:31.523Z,92.05
2022-10-28T05:50:57.870Z,92.09
2022-10-28T05:53:24.316Z,92.06
2022-10-28T05:55:50.657Z,92.20
2022-10-28T05:58:17.110Z,92.13
2022-10-28T06:00:43.630Z,92.55
2022-10-28T06:03:12.256Z,92.29
2022-10-28T06:05:43.910Z,92.33
2022-10-28T06:08:12.565Z,92.02
2022-10-28T06:10:39.613Z,92.36
2022-10-28T06:13:04.523Z,92.07
2022-10-28T06:15:31.000Z,92.47
2022-10-28T06:17:57.408Z,92.40
2022-10-28T06:20:23.917Z,91.91
2022-10-28T06:22:52.247Z,92.49
2022-10-28T06:25:20.536Z,92.18
2022-10-28T06:27:57.821Z,92.32
2022-10-28T06:30:25.968Z,92.00
2022-10-28T06:32:55.610Z,92.12
2022-10-28T06:35:21.989Z,92.88
2022-10-28T06:37:55.737Z,92.50
2022-10-28T06:40:24.478Z,92.39
2022-10-28T06:43:06.224Z,92.42
2022-10-28T06:45:33.654Z,92.15
2022-10-28T06:48:04.200Z,92.41
2022-10-28T06:50:30.933Z,92.28
2022-10-28T06:52:58.002Z,92.49
2022-10-28T06:55:28.101Z,92.11
2022-10-28T06:57:54.887Z,92.47
2022-10-28T07:00:21.721Z,92.40
2022-10-28T07:02:53.390Z,92.16
2022-10-28T07:05:20.563Z,92.58
2022-10-28T07:07:47.022Z,92.16
2022-10-28T07:10:13.386Z,92.05
2022-10-28T07:12:39.798Z,92.53
2022-10-28T07:15:07.079Z,92.04
2022-10-28T07:17:33.492Z,92.01
2022-10-28T07:19:59.860Z,92.02
2022-10-28T07:22:26.238Z,92.37
2022-10-28T07:24:55.624Z,92.07
2022-10-28T07:27:22.368Z,91.53
2022-10-28T07:29:48.821Z,91.45
2022-10-28T07:32:15.463Z,91.52
2022-10-28T07:34:41.865Z,91.41
2022-10-28T07:37:08.203Z,91.30
2022-10-28T07:39:34.792Z,91.43
2022-10-28T07:42:01.362Z,91.07
2022-10-28T07:44:27.791Z,91.25
2022-10-28T07:46:57.253Z,90.79
2022-10-28T07:49:24.759Z,90.68
2022-10-28T07:51:51.463Z,90.23
2022-10-28T07:54:17.824Z,90.33
2022-10-28T07:56:44.415Z,89.97
2022-10-28T07:59:10.771Z,89.44
2022-10-28T08:01:37.620Z,89.98
2022-10-28T08:04:04.098Z,89.53
2022-10-28T08:06:30.579Z,89.06
2022-10-28T08:08:57.380Z,89.16
2022-10-28T08:11:24.410Z,88.86
2022-10-28T08:13:55.163Z,89.25
2022-10-28T08:16:21.857Z,89.08
2022-10-28T08:18:48.458Z,88.72
2022-10-28T08:21:15.637Z,89.25
2022-10-28T08:23:46.375Z,88.85
2022-10-28T08:26:15.137Z,88.51
2022-10-28T08:28:42.212Z,88.96
2022-10-28T08:31:10.035Z,88.35
2022-10-28T08:33:38.107Z,88.16
2022-10-28T08:36:04.948Z,87.79
2022-10-28T08:38:31.330Z,87.83
2022-10-28T08:41:48.824Z,87.04
2022-10-28T08:44:42.366Z,86.89
2022-10-28T08:47:32.352Z,86.83
2022-10-28T08:50:05.392Z,86.42
2022-10-28T08:52:45.820Z,86.16
2022-10-28T08:55:28.884Z,86.06
2022-10-28T08:58:16.755Z,86.45
2022-10-28T09:00:46.872Z,86.42
2022-10-28T09:03:20.450Z,86.89
2022-10-28T09:05:49.962Z,86.07
2022-10-28T09:08:22.609Z,85.76
2022-10-28T09:11:07.793Z,85.25
2022-10-28T09:13:52.520Z,85.38
2022-10-28T09:16:43.243Z,85.45
2022-10-28T09:19:38.875Z,84.76
2022-10-28T09:22:27.604Z,84.41
2022-10-28T09:25:00.170Z,84.42
2022-10-28T09:28:02.051Z,83.88
2022-10-28T09:30:35.124Z,83.91
2022-10-28T09:33:11.681Z,83.76
2022-10-28T09:35:43.058Z,83.42
2022-10-28T09:38:21.979Z,83.58
2022-10-28T09:41:01.905Z,83.78
2022-10-28T09:43:38.606Z,83.55
2022-10-28T09:46:12.831Z,83.13
2022-10-28T09:48:46.903Z,83.76
2022-10-28T09:51:28.751Z,83.53
2022-10-28T09:53:59.545Z,83.80
2022-10-28T09:56:27.842Z,83.74
2022-10-28T09:58:57.994Z,83.74
2022-10-28T10:01:24.731Z,84.03
2022-10-28T10:03:52.202Z,83.20
2022-10-28T10:06:23.826Z,82.79
2022-10-28T10:08:50.270Z,82.14
2022-10-28T10:11:42.813Z,82.21
2022-10-28T10:14:18.625Z,81.77
2022-10-28T10:16:47.230Z,81.95
2022-10-28T10:19:13.893Z,82.21
2022-10-28T10:21:51.929Z,81.19
2022-10-28T10:24:26.334Z,81.59
2022-10-28T10:26:54.106Z,80.80
2022-10-28T10:29:22.027Z,80.63
2022-10-28T10:31:48.970Z,80.05
2022-10-28T10:34:24.159Z,80.25
2022-10-28T10:36:54.014Z,80.14
2022-10-28T10:39:26.252Z,80.48
2022-10-28T10:41:55.167Z,79.65
2022-10-28T10:44:21.481Z,79.29
2022-10-28T10:47:05.008Z,80.01
2022-10-28T10:49:36.616Z,79.55
2022-10-28T10:52:18.206Z,79.61
2022-10-28T10:54:58.598Z,79.73
2022-10-28T10:57:26.183Z,78.85
2022-10-28T10:59:55.226Z,79.49
2022-10-28T11:02:32.593Z,78.15
2022-10-28T11:05:02.581Z,78.36
2022-10-28T11:07:31.178Z,78.62
2022-10-28T11:09:57.739Z,78.80
2022-10-28T11:12:35.671Z,78.39
2022-10-28T11:15:23.527Z,78.55
2022-10-28T11:17:59.824Z,78.17
2022-10-28T11:20:28.369Z,78.30
2022-10-28T11:23:03.160Z,77.97
2022-10-28T11:25:35.190Z,77.48
2022-10-28T11:28:27.829Z,76.92
2022-10-28T11:31:03.576Z,77.20
2022-10-28T11:33:54.316Z,77.57
2022-10-28T11:36:25.850Z,77.16
2022-10-28T11:39:07.848Z,76.61
2022-10-28T11:41:52.705Z,77.30
2022-10-28T11:44:41.211Z,77.29
2022-10-28T11:47:26.355Z,77.76
2022-10-28T11:50:08.079Z,77.82
2022-10-28T11:52:56.119Z,76.65
2022-10-28T11:55:44.272Z,76.18
2022-10-28T11:58:39.598Z,75.49
2022-10-28T12:01:08.978Z,76.37
2022-10-28T12:03:48.497Z,75.86
2022-10-28T12:06:58.713Z,75.03
2022-10-28T12:09:33.934Z,75.07
2022-10-28T12:12:17.468Z,74.36
2022-10-28T12:15:01.728Z,73.78
2022-10-28T12:18:07.925Z,74.25
2022-10-28T12:20:57.682Z,74.22
2022-10-28T12:23:25.716Z,73.49
2022-10-28T12:25:55.784Z,73.60
2022-10-28T12:28:27.821Z,72.98
2022-10-28T12:30:56.920Z,73.88
2022-10-28T12:33:44.415Z,73.46
2022-10-28T12:36:32.190Z,73.13
2022-10-28T12:39:09.867Z,72.48
2022-10-28T12:42:02.603Z,72.37
2022-10-28T12:44:31.127Z,72.07
2022-10-28T12:47:05.023Z,72.48
2022-10-28T12:49:44.740Z,72.66
2022-10-28T12:52:25.125Z,72.61
2022-10-28T12:55:01.581Z,71.93
2022-10-28T12:57:30.481Z,72.84
2022-10-28T13:00:02.357Z,72.13
2022-10-28T13:02:34.246Z,71.36
2022-10-28T13:05:00.795Z,72.05
2022-10-28T13:07:58.527Z,71.87
2022-10-28T13:10:43.892Z,72.03
2022-10-28T13:13:28.848Z,72.27
2022-10-28T13:16:09.383Z,72.61
2022-10-28T13:18:54.765Z,72.50
2022-10-28T13:21:32.009Z,73.19
2022-10-28T13:24:23.456Z,72.83
2022-10-28T13:26:50.872Z,72.67
2022-10-28T13:29:27.222Z,73.08
2022-10-28T13:31:54.653Z,73.28
2022-10-28T13:34:30.353Z,72.54
2022-10-28T13:37:00.143Z,73.15
2022-10-28T13:39:29.475Z,72.55
2022-10-28T13:42:19.490Z,73.13
2022-10-28T13:44:59.744Z,73.34
2022-10-28T13:47:29.251Z,73.07
2022-10-28T13:50:08.213Z,72.86
2022-10-28T13:52:46.265Z,73.19
2022-10-28T13:55:43.701Z,73.70
2022-10-28T13:58:24.227Z,73.17
2022-10-28T14:00:53.338Z,72.99
2022-10-28T14:03:24.247Z,73.59
2022-10-28T14:05:53.899Z,72.96
2022-10-28T14:08:26.027Z,73.01
2022-10-28T14:11:13.638Z,72.65
2022-10-28T14:13:54.634Z,73.80
2022-10-28T14:16:29.217Z,73.61
2022-10-28T14:19:16.562Z,74.13
2022-10-28T14:22:02.669Z,74.03
2022-10-28T14:24:36.870Z,73.52
2022-10-28T14:27:09.763Z,74.00
2022-10-28T14:29:55.296Z,73.73
2022-10-28T14:32:30.874Z,73.59
2022-10-28T14:35:15.500Z,73.86
2022-10-28T14:37:50.830Z,74.55
2022-10-28T14:40:28.212Z,74.25
2022-10-28T14:43:26.407Z,74.70
2022-10-28T14:46:28.277Z,75.04
2022-10-28T14:48:58.630Z,75.32
2022-10-28T14:51:36.742Z,74.80
2022-10-28T14:54:09.146Z,75.27
2022-10-28T14:56:36.675Z,75.54
2022-10-28T14:59:22.728Z,75.34
2022-10-28T15:02:26.499Z,76.12
2022-10-28T15:05:16.131Z,75.55
2022-10-28T15:07:43.502Z,76.08
2022-10-28T15:10:23.058Z,76.26
2022-10-28T15:12:50.210Z,76.54
2022-10-28T15:15:22.199Z,76.16
2022-10-28T15:17:49.375Z,76.44
2022-10-28T15:20:28.876Z,76.67
2022-10-28T15:23:18.375Z,76.74
2022-10-28T15:25:45.425Z,76.96
2022-10-28T15:28:12.850Z,76.57
2022-10-28T15:30:46.449Z,76.17
2022-10-28T15:33:32.357Z,76.97
2022-10-28T15:36:17.775Z,77.14
2022-10-28T15:39:16.388Z,76.99
2022-10-28T15:41:45.860Z,77.42
2022-10-28T15:44:37.649Z,77.15
2022-10-28T15:47:29.150Z,77.47
2022-10-28T15:50:14.266Z,77.89
2022-10-28T15:52:44.983Z,78.12
2022-10-28T15:58:40.389Z,78.25
2022-10-28T16:01:40.270Z,77.70
2022-10-28T16:04:41.189Z,78.04
2022-10-28T16:07:08.829Z,78.64
2022-10-28T16:09:42.212Z,77.93
2022-10-28T16:12:21.233Z,78.61
2022-10-28T16:14:55.445Z,77.92
2022-10-28T16:17:24.151Z,78.75
2022-10-28T16:19:52.977Z,78.57
2022-10-28T16:22:20.302Z,78.64
2022-10-28T16:24:46.698Z,78.83
2022-10-28T16:27:17.495Z,78.37
2022-10-28T16:29:44.318Z,78.87
2022-10-28T16:32:12.342Z,78.99
2022-10-28T16:34:38.991Z,78.69
2022-10-28T16:37:20.862Z,78.92
2022-10-28T16:39:47.284Z,79.41
2022-10-28T16:42:14.120Z,79.75
2022-10-28T16:44:40.508Z,79.39
2022-10-28T16:47:14.535Z,79.31
2022-10-28T16:49:41.847Z,79.13
2022-10-28T16:52:22.519Z,79.14
2022-10-28T16:54:50.372Z,79.45
2022-10-28T16:57:19.241Z,79.26
2022-10-28T16:59:46.791Z,79.23
2022-10-28T17:02:30.596Z,79.54
2022-10-28T17:04:58.070Z,79.66
2022-10-28T17:07:25.007Z,80.16
2022-10-28T17:09:54.251Z,79.98
2022-10-28T17:12:24.172Z,80.45
2022-10-28T17:14:51.131Z,80.13
2022-10-28T17:17:17.936Z,79.87
2022-10-28T17:19:45.579Z,80.05
2022-10-28T17:22:12.679Z,80.26
2022-10-28T17:24:39.142Z,80.39
2022-10-28T17:27:06.216Z,80.27
2022-10-28T17:29:32.571Z,80.51
2022-10-28T17:31:59.052Z,80.90
2022-10-28T17:34:25.483Z,80.65
2022-10-28T17:36:51.838Z,81.10
2022-10-28T17:39:23.301Z,81.12
2022-10-28T17:41:52.225Z,81.22
2022-10-28T17:44:18.583Z,81.66
2022-10-28T17:46:45.056Z,81.45
2022-10-28T17:49:11.458Z,81.52
2022-10-28T17:51:38.516Z,81.83
2022-10-28T17:54:06.068Z,81.73
2022-10-28T17:56:33.741Z,81.82
2022-10-28T17:59:03.603Z,82.21
2022-10-28T18:01:32.320Z,82.21
2022-10-28T18:03:59.198Z,82.18
2022-10-28T18:06:25.962Z,81.98
2022-10-28T18:08:52.342Z,82.40
2022-10-28T18:11:22.145Z,82.69
2022-10-28T18:13:51.303Z,82.47
2022-10-28T18:16:20.377Z,82.86
2022-10-28T18:18:47.275Z,82.67
2022-10-28T18:21:14.888Z,82.95
2022-10-28T18:23:41.372Z,82.89
2022-10-28T18:26:11.682Z,83.34
2022-10-28T18:28:39.614Z,83.12
2022-10-28T18:31:14.180Z,83.04
2022-10-28T18:33:42.066Z,83.19
2022-10-28T18:36:14.416Z,83.47
2022-10-28T18:38:41.079Z,83.37
2022-10-28T18:41:15.741Z,83.65
2022-10-28T18:43:42.250Z,82.59
2022-10-28T18:46:09.223Z,82.49
2022-10-28T18:48:35.778Z,81.85
2022-10-28T18:51:06.724Z,82.03
2022-10-28T18:53:41.993Z,81.26
2022-10-28T18:56:12.002Z,81.20
2022-10-28T18:58:38.658Z,80.23
2022-10-28T19:01:07.368Z,79.69
2022-10-28T19:03:33.917Z,79.76
2022-10-28T19:06:02.413Z,80.39
2022-10-28T19:08:28.902Z,80.09
2022-10-28T19:10:57.019Z,79.94
2022-10-28T19:13:23.875Z,79.71
2022-10-28T19:15:50.432Z,79.79
2022-10-28T19:18:19.279Z,79.71
2022-10-28T19:20:45.970Z,80.54
2022-10-28T19:23:12.391Z,80.07
2022-10-28T19:25:38.890Z,80.04
2022-10-28T19:28:05.459Z,80.44
2022-10-28T19:30:31.941Z,80.05
2022-10-28T19:32:58.493Z,79.87
2022-10-28T19:35:25.050Z,80.43
2022-10-28T19:37:54.888Z,80.19
2022-10-28T19:40:21.256Z,80.52
2022-10-28T19:42:47.700Z,80.42
2022-10-28T19:45:15.012Z,80.51
2022-10-28T19:47:41.464Z,80.79
2022-10-28T19:50:08.647Z,80.61
2022-10-28T19:52:35.046Z,80.72
2022-10-28T19:55:01.377Z,81.00
2022-10-28T19:57:27.773Z,80.76
2022-10-28T19:59:54.110Z,80.50
2022-10-28T20:02:20.608Z,80.76
2022-10-28T20:04:48.786Z,81.02
2022-10-28T20:07:15.326Z,80.49
2022-10-28T20:09:41.804Z,80.90
2022-10-28T20:12:08.206Z,81.07
2022-10-28T20:14:34.648Z,81.24
2022-10-28T20:17:06.323Z,81.06
2022-10-28T20:19:33.364Z,81.20
2022-10-28T20:21:59.958Z,81.74
2022-10-28T20:24:26.425Z,81.66
2022-10-28T20:26:52.775Z,81.22
2022-10-28T20:29:19.130Z,81.54
2022-10-28T20:31:45.475Z,81.42
2022-10-28T20:34:11.844Z,81.47
2022-10-28T20:36:40.760Z,81.58
2022-10-28T20:39:15.694Z,81.63
2022-10-28T20:41:44.013Z,81.63
2022-10-28T20:44:10.456Z,82.08
2022-10-28T20:46:37.300Z,82.13
2022-10-28T20:49:04.683Z,82.22
2022-10-28T20:51:32.702Z,82.20
2022-10-28T20:53:59.738Z,82.45
2022-10-28T20:56:28.604Z,82.16
2022-10-28T20:58:57.791Z,82.47
2022-10-28T21:01:27.240Z,82.50
2022-10-28T21:03:55.756Z,82.90
2022-10-28T21:06:22.691Z,82.73
2022-10-28T21:08:49.346Z,82.74
2022-10-28T21:11:17.376Z,82.29
2022-10-28T21:13:46.108Z,82.74
2022-10-28T21:16:14.159Z,82.96
2022-10-28T21:18:41.146Z,82.57
2022-10-28T21:21:07.764Z,82.37
2022-10-28T21:23:34.462Z,82.54
2022-10-28T21:26:03.659Z,82.70
2022-10-28T21:28:32.030Z,82.73
2022-10-28T21:31:18.122Z,83.01
2022-10-28T21:33:45.304Z,82.98
2022-10-28T21:36:17.192Z,82.92
2022-10-28T21:38:44.166Z,83.51
2022-10-28T21:41:14.492Z,83.61
2022-10-28T21:43:43.738Z,83.11
2022-10-28T21:46:10.466Z,83.09
2022-10-28T21:48:37.835Z,83.53
2022-10-28T21:51:13.480Z,83.41
2022-10-28T21:53:42.580Z,83.31
2022-10-28T21:56:16.624Z,83.32
2022-10-28T21:58:44.122Z,83.64
2022-10-28T22:01:13.261Z,83.21
2022-10-28T22:03:40.919Z,83.52
2022-10-28T22:06:07.539Z,83.55
2022-10-28T22:08:34.547Z,83.61
2022-10-28T22:11:00.998Z,83.17
2022-10-28T22:13:28.098Z,84.08
2022-10-28T22:15:59.763Z,84.12
2022-10-28T22:18:27.110Z,84.15
2022-10-28T22:20:53.537Z,84.33
2022-10-28T22:23:19.957Z,84.60
2022-10-28T22:25:46.507Z,84.25
2022-10-28T22:28:13.234Z,84.59
2022-10-28T22:30:39.696Z,84.29
2022-10-28T22:33:06.058Z,84.52
2022-10-28T22:35:32.523Z,84.20
2022-10-28T22:37:58.893Z,84.49
2022-10-28T22:40:25.333Z,84.87
2022-10-28T22:42:51.731Z,84.60
2022-10-28T22:45:20.680Z,85.92
2022-10-28T22:47:49.491Z,85.25
2022-10-28T22:50:15.918Z,85.29
2022-10-28T22:52:42.303Z,85.89
2022-10-28T22:55:09.147Z,85.70
2022-10-28T22:57:35.517Z,85.61
2022-10-28T23:00:02.207Z,85.79
2022-10-28T23:02:30.706Z,85.80
2022-10-28T23:04:57.124Z,85.72
2022-10-28T23:07:23.530Z,85.55
2022-10-28T23:09:49.899Z,85.89
2022-10-28T23:12:16.276Z,86.17
2022-10-28T23:14:42.614Z,85.77
2022-10-28T23:17:09.025Z,86.20
2022-10-28T23:19:35.397Z,86.23
2022-10-28T23:22:01.856Z,86.73
2022-10-28T23:24:30.678Z,86.70
2022-10-28T23:29:24.327Z,86.28
2022-10-28T23:31:50.814Z,85.76
2022-10-28T23:34:17.212Z,86.03
2022-10-28T23:36:43.562Z,85.43
2022-10-28T23:39:09.984Z,85.51
2022-10-28T23:41:36.357Z,85.48
2022-10-28T23:44:02.728Z,85.56
2022-10-28T23:46:33.624Z,85.60
2022-10-28T23:49:03.354Z,86.31
2022-10-28T23:51:29.992Z,86.17
2022-10-28T23:53:56.575Z,86.11
2022-10-28T23:56:22.937Z,85.85
2022-10-28T23:58:49.360Z,86.28
